createdAt,value
2023-03-13T00:01:25.435Z,45.88
2023-03-13T00:03:53.630Z,42.08
2023-03-13T00:06:25.101Z,38.03
2023-03-13T00:08:52.400Z,46.03
2023-03-13T00:11:19.833Z,34.97
2023-03-13T00:13:47.168Z,35.38
2023-03-13T00:16:16.983Z,31.17
2023-03-13T00:18:49.590Z,39.30
2023-03-13T00:21:19.029Z,36.60
2023-03-13T00:23:46.959Z,49.17
2023-03-13T00:26:16.977Z,45.80
2023-03-13T00:28:46.050Z,41.47
2023-03-13T00:31:17.392Z,42.50
2023-03-13T00:33:46.962Z,45.17
2023-03-13T00:36:19.922Z,39.05
2023-03-13T00:38:47.460Z,44.08
2023-03-13T00:41:20.486Z,48.58
2023-03-13T00:43:49.064Z,36.00
2023-03-13T00:46:18.556Z,48.22
2023-03-13T00:48:46.773Z,44.40
2023-03-13T00:51:15.689Z,41.78
2023-03-13T00:53:43.310Z,31.70
2023-03-13T00:56:15.696Z,45.08
2023-03-13T00:58:48.399Z,37.60
2023-03-13T01:01:22.150Z,39.13
2023-03-13T01:03:55.367Z,48.90
2023-03-13T01:06:25.707Z,37.95
2023-03-13T01:08:53.385Z,44.75
2023-03-13T01:11:23.865Z,45.67
2023-03-13T01:13:54.455Z,41.25
2023-03-13T01:16:22.906Z,56.70
2023-03-13T01:18:53.125Z,40.60
2023-03-13T01:21:21.817Z,46.55
2023-03-13T01:23:50.732Z,65.53
2023-03-13T01:26:18.546Z,52.53
2023-03-13T01:28:45.725Z,59.10
2023-03-13T01:31:31.187Z,50.05
2023-03-13T01:34:00.847Z,50.90
2023-03-13T01:36:29.378Z,46.15
2023-03-13T01:38:59.878Z,47.60
2023-03-13T01:41:29.391Z,43.60
2023-03-13T01:43:57.446Z,51.97
2023-03-13T01:46:28.294Z,45.80
2023-03-13T01:49:34.087Z,50.78
2023-03-13T01:52:15.580Z,41.60
2023-03-13T01:54:59.809Z,47.47
2023-03-13T01:57:51.037Z,51.92
2023-03-13T02:00:23.108Z,49.20
2023-03-13T02:02:55.572Z,38.47
2023-03-13T02:05:28.023Z,40.88
2023-03-13T02:08:01.081Z,40.97
2023-03-13T02:10:31.159Z,34.33
2023-03-13T02:12:59.906Z,42.92
2023-03-13T02:15:29.425Z,44.28
2023-03-13T02:17:57.346Z,28.08
2023-03-13T02:20:25.544Z,37.10
2023-03-13T02:23:01.557Z,38.78
2023-03-13T02:25:34.693Z,31.42
2023-03-13T02:28:06.052Z,47.17
2023-03-13T02:30:34.938Z,41.45
2023-03-13T02:33:04.201Z,32.58
2023-03-13T02:35:33.410Z,53.72
2023-03-13T02:38:05.866Z,45.95
2023-03-13T02:40:39.913Z,46.30
2023-03-13T02:43:21.538Z,53.63
2023-03-13T02:46:16.567Z,40.90
2023-03-13T02:48:46.069Z,44.67
2023-03-13T02:51:17.177Z,46.35
2023-03-13T02:53:45.222Z,55.92
2023-03-13T02:56:15.448Z,35.88
2023-03-13T02:58:49.787Z,31.85
2023-03-13T03:01:17.860Z,39.30
2023-03-13T03:03:45.064Z,32.13
2023-03-13T03:06:12.226Z,36.08
2023-03-13T03:08:41.810Z,37.00
2023-03-13T03:11:09.234Z,30.95
2023-03-13T03:13:36.489Z,45.88
2023-03-13T03:16:12.444Z,41.08
2023-03-13T03:18:39.917Z,29.98
2023-03-13T03:21:08.384Z,32.83
2023-03-13T03:23:36.705Z,36.78
2023-03-13T03:26:05.796Z,26.73
2023-03-13T03:28:33.561Z,50.28
2023-03-13T03:31:08.964Z,32.70
2023-03-13T03:33:36.579Z,48.10
2023-03-13T03:36:08.744Z,25.92
2023-03-13T03:38:36.028Z,35.25
2023-03-13T03:41:03.457Z,35.33
2023-03-13T03:43:33.457Z,34.42
2023-03-13T03:46:01.046Z,37.10
2023-03-13T03:48:28.727Z,28.17
2023-03-13T03:50:56.197Z,33.13
2023-03-13T03:53:24.327Z,35.05
2023-03-13T03:55:51.575Z,29.17
2023-03-13T03:58:18.790Z,35.83
2023-03-13T04:00:47.266Z,38.67
2023-03-13T04:03:15.394Z,36.28
2023-03-13T04:05:43.239Z,29.02
2023-03-13T04:08:10.990Z,32.40
2023-03-13T04:10:38.521Z,51.10
2023-03-13T04:13:05.558Z,38.90
2023-03-13T04:15:33.286Z,30.02
2023-03-13T04:18:00.949Z,24.05
2023-03-13T04:20:29.355Z,30.58
2023-03-13T04:22:56.633Z,41.25
2023-03-13T04:25:23.796Z,26.33
2023-03-13T04:27:51.280Z,33.15
2023-03-13T04:30:18.852Z,31.25
2023-03-13T04:32:46.377Z,32.63
2023-03-13T04:35:13.791Z,42.75
2023-03-13T04:37:41.106Z,37.72
2023-03-13T04:40:09.014Z,23.83
2023-03-13T04:42:36.172Z,28.38
2023-03-13T04:45:03.266Z,23.88
2023-03-13T04:47:30.445Z,25.60
2023-03-13T04:49:57.897Z,22.08
2023-03-13T04:52:25.801Z,36.75
2023-03-13T04:54:53.048Z,23.73
2023-03-13T04:57:20.246Z,24.88
2023-03-13T04:59:47.562Z,23.35
2023-03-13T05:02:14.809Z,28.85
2023-03-13T05:04:42.268Z,26.13
2023-03-13T05:07:09.443Z,28.58
2023-03-13T05:09:36.700Z,28.42
2023-03-13T05:12:04.001Z,43.70
2023-03-13T05:14:31.340Z,23.83
2023-03-13T05:16:58.993Z,29.10
2023-03-13T05:19:26.233Z,25.02
2023-03-13T05:21:53.406Z,33.53
2023-03-13T05:24:20.826Z,32.97
2023-03-13T05:26:48.197Z,16.95
2023-03-13T05:29:15.502Z,34.55
2023-03-13T05:31:42.775Z,24.77
2023-03-13T05:34:10.083Z,20.20
2023-03-13T05:36:37.462Z,19.08
2023-03-13T05:39:07.608Z,35.70
2023-03-13T05:41:34.912Z,38.97
2023-03-13T05:44:02.333Z,38.83
2023-03-13T05:46:29.775Z,36.35
2023-03-13T05:48:57.173Z,20.88
2023-03-13T05:51:24.485Z,23.73
2023-03-13T05:53:51.783Z,26.30
2023-03-13T05:56:19.085Z,28.02
2023-03-13T05:58:46.267Z,26.33
2023-03-13T06:01:14.589Z,29.63
2023-03-13T06:03:41.919Z,25.85
2023-03-13T06:06:09.161Z,31.08
2023-03-13T06:08:36.540Z,16.33
2023-03-13T06:11:04.152Z,36.83
2023-03-13T06:13:31.372Z,28.10
2023-03-13T06:15:59.526Z,29.48
2023-03-13T06:18:27.687Z,22.92
2023-03-13T06:21:00.965Z,38.80
2023-03-13T06:23:28.842Z,15.93
2023-03-13T06:25:56.625Z,26.98
2023-03-13T06:28:24.179Z,28.45
2023-03-13T06:30:51.648Z,23.42
2023-03-13T06:33:18.847Z,15.90
2023-03-13T06:35:56.431Z,32.92
2023-03-13T06:38:25.436Z,25.77
2023-03-13T06:40:52.988Z,21.20
2023-03-13T06:43:20.939Z,15.90
2023-03-13T06:45:51.527Z,22.73
2023-03-13T06:48:19.196Z,23.15
2023-03-13T06:50:50.224Z,21.13
2023-03-13T06:53:21.543Z,16.02
2023-03-13T06:55:49.421Z,32.22
2023-03-13T06:58:31.086Z,34.05
2023-03-13T07:01:01.156Z,28.85
2023-03-13T07:03:28.963Z,25.08
2023-03-13T07:05:58.007Z,23.27
2023-03-13T07:08:26.068Z,17.27
2023-03-13T07:10:54.787Z,21.38
2023-03-13T07:13:22.457Z,15.68
2023-03-13T07:15:50.354Z,15.80
2023-03-13T07:18:17.803Z,21.80
2023-03-13T07:20:45.123Z,12.85
2023-03-13T07:23:12.315Z,22.63
2023-03-13T07:25:39.440Z,15.88
2023-03-13T07:28:06.613Z,13.88
2023-03-13T07:30:36.048Z,13.25
2023-03-13T07:33:03.433Z,20.92
2023-03-13T07:35:30.950Z,14.85
2023-03-13T07:37:58.090Z,22.17
2023-03-13T07:40:25.253Z,18.25
2023-03-13T07:42:52.629Z,17.95
2023-03-13T07:45:20.131Z,13.93
2023-03-13T07:47:47.137Z,10.90
2023-03-13T07:50:14.436Z,13.48
2023-03-13T07:52:41.583Z,15.60
2023-03-13T07:55:09.233Z,13.57
2023-03-13T07:57:36.417Z,13.52
2023-03-13T08:00:04.282Z,16.95
2023-03-13T08:02:31.836Z,8.00
2023-03-13T08:04:59.276Z,16.52
2023-03-13T08:07:26.431Z,9.60
2023-03-13T08:09:53.918Z,9.77
2023-03-13T08:12:21.261Z,26.02
2023-03-13T08:14:48.381Z,20.92
2023-03-13T08:17:15.668Z,15.93
2023-03-13T08:19:43.307Z,15.68
2023-03-13T08:22:10.592Z,7.97
2023-03-13T08:24:37.974Z,11.88
2023-03-13T08:27:05.260Z,8.18
2023-03-13T08:29:32.528Z,8.73
2023-03-13T08:31:59.564Z,17.48
2023-03-13T08:34:26.659Z,10.48
2023-03-13T08:36:53.826Z,12.07
2023-03-13T08:39:21.815Z,8.82
2023-03-13T08:41:49.136Z,10.88
2023-03-13T08:44:19.170Z,10.32
2023-03-13T08:46:48.303Z,10.32
2023-03-13T08:49:17.962Z,20.83
2023-03-13T08:51:45.466Z,9.23
2023-03-13T08:54:12.808Z,10.55
2023-03-13T08:56:41.356Z,9.05
2023-03-13T08:59:08.561Z,24.08
2023-03-13T09:01:37.112Z,13.02
2023-03-13T09:04:06.164Z,14.00
2023-03-13T09:06:38.590Z,11.85
2023-03-13T09:09:07.587Z,14.27
2023-03-13T09:11:36.388Z,11.60
2023-03-13T09:14:03.864Z,11.63
2023-03-13T09:16:33.282Z,16.20
2023-03-13T09:19:01.332Z,12.60
2023-03-13T09:21:30.884Z,22.45
2023-03-13T09:23:58.915Z,16.92
2023-03-13T09:26:28.016Z,19.85
2023-03-13T09:28:55.633Z,12.75
2023-03-13T09:31:32.964Z,16.08
2023-03-13T09:34:01.280Z,18.08
2023-03-13T09:36:29.329Z,12.95
2023-03-13T09:38:58.834Z,13.32
2023-03-13T09:41:51.789Z,16.50
2023-03-13T09:44:24.607Z,13.73
2023-03-13T09:46:55.041Z,13.82
2023-03-13T09:49:54.794Z,13.45
2023-03-13T09:52:27.581Z,13.95
2023-03-13T09:54:54.727Z,14.63
2023-03-13T09:57:54.639Z,10.88
2023-03-13T10:00:34.650Z,11.98
2023-03-13T10:03:21.750Z,11.95
2023-03-13T10:06:12.073Z,16.42
2023-03-13T10:08:39.300Z,13.25
2023-03-13T10:11:20.811Z,18.33
2023-03-13T10:13:59.057Z,19.92
2023-03-13T10:16:50.332Z,11.95
2023-03-13T10:19:27.109Z,16.05
2023-03-13T10:21:57.460Z,15.43
2023-03-13T10:24:42.923Z,13.77
2023-03-13T10:27:12.004Z,18.60
2023-03-13T10:29:40.390Z,16.77
2023-03-13T10:32:11.473Z,13.32
2023-03-13T10:35:03.533Z,14.73
2023-03-13T10:37:42.804Z,39.63
2023-03-13T10:40:23.054Z,14.40
2023-03-13T10:42:54.372Z,14.65
2023-03-13T10:45:25.333Z,13.15
2023-03-13T10:47:57.846Z,13.50
2023-03-13T10:50:27.597Z,21.63
2023-03-13T10:52:58.099Z,13.38
2023-03-13T10:55:27.390Z,12.43
2023-03-13T10:58:03.591Z,10.57
2023-03-13T11:00:34.590Z,10.60
2023-03-13T11:03:06.679Z,15.73
2023-03-13T11:05:40.662Z,14.07
2023-03-13T11:08:25.501Z,11.18
2023-03-13T11:10:57.180Z,9.80
2023-03-13T11:13:36.609Z,14.38
2023-03-13T11:16:29.442Z,11.45
2023-03-13T11:19:15.004Z,12.52
2023-03-13T11:22:02.718Z,9.50
2023-03-13T11:25:01.199Z,10.25
2023-03-13T11:27:45.173Z,9.43
2023-03-13T11:30:38.978Z,15.43
2023-03-13T11:33:35.986Z,7.80
2023-03-13T11:36:25.952Z,12.25
2023-03-13T11:39:06.580Z,11.25
2023-03-13T11:42:07.411Z,11.63
2023-03-13T11:45:04.113Z,5.68
2023-03-13T11:47:55.897Z,7.97
2023-03-13T11:50:38.233Z,4.65
2023-03-13T11:53:24.063Z,11.13
2023-03-13T11:56:06.719Z,7.45
2023-03-13T11:59:11.108Z,6.35
2023-03-13T12:01:46.497Z,5.90
2023-03-13T12:04:28.346Z,8.50
2023-03-13T12:07:04.903Z,6.05
2023-03-13T12:09:46.157Z,6.95
2023-03-13T12:12:35.594Z,7.05
2023-03-13T12:15:21.499Z,4.35
2023-03-13T12:18:00.536Z,5.43
2023-03-13T12:20:40.218Z,6.50
2023-03-13T12:23:07.523Z,7.53
2023-03-13T12:25:45.759Z,5.03
2023-03-13T12:28:16.269Z,3.50
2023-03-13T12:31:11.569Z,10.38
2023-03-13T12:33:48.775Z,9.33
2023-03-13T12:48:20.799Z,3.88
2023-03-13T12:54:54.529Z,2.40
2023-03-13T12:57:36.976Z,3.63
2023-03-13T13:00:11.521Z,8.85
2023-03-13T13:02:39.108Z,4.63
2023-03-13T13:05:26.967Z,3.78
2023-03-13T13:08:00.577Z,2.75
2023-03-13T13:14:21.786Z,6.40
2023-03-13T13:16:53.352Z,3.38
2023-03-13T13:19:23.678Z,1.90
2023-03-13T13:22:28.559Z,2.83
2023-03-13T13:25:01.325Z,6.68
2023-03-13T13:27:34.714Z,4.47
2023-03-13T13:30:36.648Z,3.83
2023-03-13T13:33:19.432Z,5.43
2023-03-13T13:35:48.445Z,3.70
2023-03-13T13:38:18.711Z,2.08
2023-03-13T13:41:12.389Z,3.65
2023-03-13T13:43:45.551Z,1.50
2023-03-13T13:46:34.428Z,1.50
2023-03-13T13:49:08.231Z,6.25
2023-03-13T13:51:37.445Z,6.25
2023-03-13T13:54:19.936Z,7.88
2023-03-13T13:56:49.839Z,4.20
2023-03-13T13:59:25.151Z,5.00
2023-03-13T14:02:19.051Z,1.10
2023-03-13T14:04:52.660Z,4.88
2023-03-13T14:07:49.408Z,4.75
2023-03-13T14:10:51.851Z,6.85
2023-03-13T14:13:25.150Z,3.42
2023-03-13T14:15:54.227Z,5.22
2023-03-13T14:18:25.459Z,3.50
2023-03-13T14:20:54.790Z,5.68
2023-03-13T14:23:49.767Z,2.83
2023-03-13T14:26:22.468Z,3.38
2023-03-13T14:28:56.927Z,4.15
2023-03-13T14:31:35.452Z,9.23
2023-03-13T14:34:05.941Z,1.20
2023-03-13T14:36:47.819Z,4.10
2023-03-13T14:39:33.292Z,4.07
2023-03-13T14:42:19.687Z,2.30
2023-03-13T14:44:50.595Z,2.47
2023-03-13T14:47:29.064Z,8.88
2023-03-13T14:50:10.867Z,3.50
2023-03-13T14:52:40.290Z,4.70
2023-03-13T14:55:23.020Z,4.45
2023-03-13T14:58:05.408Z,7.63
2023-03-13T15:00:43.334Z,5.53
2023-03-13T15:03:34.059Z,2.20
2023-03-13T15:06:10.699Z,1.48
2023-03-13T15:08:43.773Z,4.85
2023-03-13T15:11:29.545Z,3.42
2023-03-13T15:16:27.006Z,1.15
2023-03-13T15:18:55.475Z,2.42
2023-03-13T15:21:35.322Z,3.25
2023-03-13T15:24:11.094Z,1.98
2023-03-13T15:26:40.079Z,1.25
2023-03-13T15:29:07.345Z,5.47
2023-03-13T15:31:38.582Z,2.22
2023-03-13T15:34:11.287Z,5.25
2023-03-13T15:36:41.023Z,4.25
2023-03-13T15:39:23.005Z,1.80
2023-03-13T15:41:50.718Z,2.05
2023-03-13T15:44:18.010Z,1.83
2023-03-13T15:46:46.418Z,1.15
2023-03-13T15:49:13.908Z,1.67
2023-03-13T15:51:42.753Z,4.65
2023-03-13T15:54:10.155Z,4.93
2023-03-13T15:56:39.126Z,5.38
2023-03-13T15:59:14.015Z,14.75
2023-03-13T16:01:42.461Z,4.40
2023-03-13T16:04:11.563Z,2.05
2023-03-13T16:06:39.292Z,2.00
2023-03-13T16:09:07.539Z,2.53
2023-03-13T16:11:34.976Z,5.05
2023-03-13T16:14:02.856Z,2.30
2023-03-13T16:16:36.883Z,5.95
2023-03-13T16:19:04.683Z,2.20
2023-03-13T16:21:35.057Z,4.38
2023-03-13T16:24:02.857Z,2.92
2023-03-13T16:26:32.440Z,1.35
2023-03-13T16:29:02.755Z,2.65
2023-03-13T16:31:32.128Z,2.05
2023-03-13T16:34:01.136Z,3.40
2023-03-13T16:36:31.640Z,2.13
2023-03-13T16:39:11.215Z,1.40
2023-03-13T16:41:38.687Z,4.10
2023-03-13T16:44:06.336Z,1.48
2023-03-13T16:46:46.042Z,3.70
2023-03-13T16:49:17.334Z,3.85
2023-03-13T16:51:44.479Z,2.55
2023-03-13T16:54:13.091Z,2.72
2023-03-13T16:56:43.474Z,3.45
2023-03-13T16:59:17.077Z,1.65
2023-03-13T17:01:46.616Z,4.13
2023-03-13T17:04:14.377Z,2.22
2023-03-13T17:06:44.914Z,1.95
2023-03-13T17:09:16.450Z,0.80
2023-03-13T17:11:44.186Z,1.77
2023-03-13T17:14:11.937Z,3.72
2023-03-13T17:16:42.635Z,2.78
2023-03-13T17:19:17.401Z,3.58
2023-03-13T17:21:44.861Z,1.80
2023-03-13T17:24:12.392Z,1.50
2023-03-13T17:26:40.090Z,3.10
2023-03-13T17:29:08.973Z,0.93
2023-03-13T17:31:40.210Z,1.27
2023-03-13T17:34:08.865Z,1.23
2023-03-13T17:36:36.886Z,1.60
2023-03-13T17:39:06.577Z,0.45
2023-03-13T17:41:35.395Z,0.90
2023-03-13T17:44:04.037Z,1.63
2023-03-13T17:46:39.525Z,1.50
2023-03-13T17:49:08.058Z,2.45
2023-03-13T17:51:36.633Z,3.22
2023-03-13T17:54:04.244Z,2.15
2023-03-13T17:56:36.537Z,1.80
2023-03-13T17:59:05.184Z,4.63
2023-03-13T18:01:34.994Z,4.18
2023-03-13T18:04:02.784Z,1.80
2023-03-13T18:06:43.100Z,3.65
2023-03-13T18:09:19.775Z,1.52
2023-03-13T18:11:47.779Z,2.63
2023-03-13T18:14:15.489Z,4.75
2023-03-13T18:16:48.621Z,3.65
2023-03-13T18:19:22.698Z,5.00
2023-03-13T18:21:52.550Z,2.90
2023-03-13T18:24:20.560Z,3.60
2023-03-13T18:26:49.810Z,1.73
2023-03-13T18:29:26.839Z,51.40
2023-03-13T18:31:59.248Z,74.47
2023-03-13T18:34:27.534Z,25.45
2023-03-13T18:36:55.595Z,87.57
2023-03-13T18:39:23.431Z,11.13
2023-03-13T18:41:52.627Z,3.97
2023-03-13T18:44:21.207Z,4.72
2023-03-13T18:46:50.611Z,5.53
2023-03-13T18:49:23.859Z,5.13
2023-03-13T18:51:53.394Z,3.35
2023-03-13T18:54:21.108Z,3.10
2023-03-13T18:56:48.399Z,3.63
2023-03-13T18:59:23.852Z,1.95
2023-03-13T19:01:51.451Z,11.15
2023-03-13T19:04:20.412Z,9.20
2023-03-13T19:06:48.652Z,5.75
2023-03-13T19:12:12.424Z,11.38
2023-03-13T19:14:39.682Z,3.13
2023-03-13T19:17:29.599Z,1.50
2023-03-13T19:19:59.787Z,1.65
2023-03-13T19:22:27.399Z,2.15
2023-03-13T19:24:56.253Z,3.58
2023-03-13T19:27:23.530Z,2.67
2023-03-13T19:29:50.697Z,2.08
2023-03-13T19:32:19.554Z,1.35
2023-03-13T19:34:47.302Z,1.95
2023-03-13T19:37:16.523Z,1.80
2023-03-13T19:39:50.366Z,2.67
2023-03-13T19:42:17.848Z,4.18
2023-03-13T19:44:45.219Z,1.63
2023-03-13T19:47:16.132Z,1.63
2023-03-13T19:49:43.528Z,2.78
2023-03-13T19:52:10.982Z,4.00
2023-03-13T19:54:38.302Z,2.35
2023-03-13T19:57:05.684Z,3.75
2023-03-13T19:59:35.652Z,1.83
2023-03-13T20:02:04.598Z,1.17
2023-03-13T20:04:32.496Z,3.58
2023-03-13T20:06:59.878Z,2.35
2023-03-13T20:09:27.257Z,3.10
2023-03-13T20:11:54.909Z,9.90
2023-03-13T20:14:25.322Z,2.28
2023-03-13T20:16:52.694Z,2.03
2023-03-13T20:19:20.483Z,1.52
2023-03-13T20:21:47.922Z,1.40
2023-03-13T20:24:15.671Z,3.13
2023-03-13T20:26:42.923Z,1.23
2023-03-13T20:29:10.408Z,1.20
2023-03-13T20:31:37.838Z,4.28
2023-03-13T20:34:05.432Z,1.00
2023-03-13T20:36:33.056Z,4.03
2023-03-13T20:39:03.248Z,1.17
2023-03-13T20:41:31.488Z,4.35
2023-03-13T20:43:59.113Z,3.55
2023-03-13T20:46:27.291Z,2.58
2023-03-13T20:48:57.858Z,6.47
2023-03-13T20:51:26.504Z,5.32
2023-03-13T20:53:53.853Z,2.78
2023-03-13T20:56:21.224Z,5.60
2023-03-13T20:58:48.889Z,1.65
2023-03-13T21:01:18.411Z,2.00
2023-03-13T21:03:46.984Z,5.22
2023-03-13T21:06:17.236Z,2.30
2023-03-13T21:08:46.271Z,3.30
2023-03-13T21:11:23.250Z,0.80
2023-03-13T21:13:51.805Z,5.72
2023-03-13T21:16:20.541Z,1.50
2023-03-13T21:18:48.606Z,7.70
2023-03-13T21:21:20.841Z,1.42
2023-03-13T21:23:52.556Z,1.38
2023-03-13T21:26:20.648Z,2.10
2023-03-13T21:28:48.342Z,2.67
2023-03-13T21:31:20.043Z,1.63
2023-03-13T21:33:49.061Z,1.88
2023-03-13T21:36:18.767Z,5.55
2023-03-13T21:38:46.850Z,1.40
2023-03-13T21:41:18.566Z,3.92
2023-03-13T21:43:45.926Z,2.40
2023-03-13T21:46:18.217Z,4.68
2023-03-13T21:51:13.873Z,1.60
2023-03-13T21:53:42.503Z,4.28
2023-03-13T21:56:15.495Z,1.83
2023-03-13T21:58:44.484Z,2.97
2023-03-13T22:01:13.126Z,2.38
2023-03-13T22:03:41.077Z,3.97
2023-03-13T22:06:17.158Z,7.40
2023-03-13T22:08:45.013Z,3.75
2023-03-13T22:11:32.879Z,4.63
2023-03-13T22:14:00.257Z,2.90
2023-03-13T22:16:27.610Z,4.45
2023-03-13T22:18:58.032Z,4.38
2023-03-13T22:21:25.272Z,4.47
2023-03-13T22:24:51.683Z,1.27
2023-03-13T22:27:19.930Z,7.00
2023-03-13T22:29:48.151Z,3.30
2023-03-13T22:32:17.162Z,2.30
2023-03-13T22:34:47.618Z,6.53
2023-03-13T22:37:15.249Z,2.83
2023-03-13T22:39:43.359Z,7.72
2023-03-13T22:42:11.232Z,3.20
2023-03-13T22:44:38.647Z,1.58
2023-03-13T22:47:05.969Z,3.60
2023-03-13T22:49:33.409Z,3.88
2023-03-13T22:52:03.054Z,3.45
2023-03-13T22:54:30.927Z,4.60
2023-03-13T22:56:58.408Z,4.00
2023-03-13T22:59:26.053Z,3.05
2023-03-13T23:01:53.387Z,3.20
2023-03-13T23:04:20.904Z,3.17
2023-03-13T23:06:48.250Z,2.72
2023-03-13T23:09:16.140Z,1.77
2023-03-13T23:11:43.828Z,3.78
2023-03-13T23:14:11.499Z,4.68
2023-03-13T23:16:38.949Z,3.88
2023-03-13T23:19:07.771Z,4.93
2023-03-13T23:21:35.323Z,3.10
2023-03-13T23:24:02.729Z,3.90
2023-03-13T23:26:37.990Z,3.22
2023-03-13T23:29:06.104Z,2.70
2023-03-13T23:31:35.052Z,3.25
2023-03-13T23:34:02.417Z,8.50
2023-03-13T23:36:29.996Z,5.97
2023-03-13T23:38:58.631Z,5.40
2023-03-13T23:41:25.994Z,2.92
2023-03-13T23:43:53.203Z,1.52
2023-03-13T23:46:22.765Z,2.47
2023-03-13T23:48:53.423Z,2.17
2023-03-13T23:51:20.627Z,2.20
2023-03-13T23:53:47.945Z,2.25
2023-03-13T23:56:16.068Z,3.75
2023-03-13T23:58:44.045Z,3.53
